createdAt,value
2019-06-07T00:02:16.321Z,17.10
2019-06-07T00:04:43.745Z,17.00
2019-06-07T00:07:14.979Z,17.00
2019-06-07T00:09:44.906Z,16.90
2019-06-07T00:12:17.575Z,16.90
2019-06-07T00:14:45.794Z,16.90
2019-06-07T00:17:19.606Z,16.80
2019-06-07T00:19:46.666Z,16.90
2019-06-07T00:22:29.634Z,16.80
2019-06-07T00:24:47.591Z,16.80
2019-06-07T00:27:21.976Z,16.90
2019-06-07T00:29:49.167Z,16.90
2019-06-07T00:32:22.024Z,16.80
2019-06-07T00:34:49.880Z,16.80
2019-06-07T00:37:23.500Z,16.80
2019-06-07T00:40:12.830Z,16.80
2019-06-07T00:42:23.959Z,16.80
2019-06-07T00:47:24.905Z,16.70
2019-06-07T00:49:51.706Z,16.80
2019-06-07T00:53:11.684Z,16.80
2019-06-07T00:57:24.334Z,16.90
2019-06-07T00:59:53.119Z,17.00
2019-06-07T01:02:28.894Z,17.00
2019-06-07T01:07:24.477Z,17.10
2019-06-07T01:09:54.120Z,17.00
2019-06-07T01:12:26.852Z,17.00
2019-06-07T01:14:55.215Z,16.90
2019-06-07T01:17:39.884Z,16.90
2019-06-07T01:19:56.957Z,16.90
2019-06-07T01:22:29.278Z,16.80
2019-06-07T01:24:57.726Z,16.80
2019-06-07T01:27:28.759Z,16.80
2019-06-07T01:29:58.814Z,16.90
2019-06-07T01:32:31.761Z,16.90
2019-06-07T01:34:59.858Z,16.90
2019-06-07T01:37:30.506Z,16.90
2019-06-07T01:40:00.806Z,17.00
2019-06-07T01:42:31.297Z,17.00
2019-06-07T01:45:01.550Z,17.00
2019-06-07T01:47:32.415Z,17.00
2019-06-07T01:50:02.316Z,17.00
2019-06-07T01:52:32.711Z,17.00
2019-06-07T01:55:03.086Z,17.00
2019-06-07T01:57:45.416Z,17.00
2019-06-07T02:00:04.124Z,17.00
2019-06-07T02:02:34.569Z,17.00
2019-06-07T02:05:05.361Z,17.00
2019-06-07T02:07:35.750Z,17.00
2019-06-07T02:10:06.546Z,17.00
2019-06-07T02:12:43.163Z,17.00
2019-06-07T02:15:08.396Z,17.10
2019-06-07T02:17:38.932Z,17.10
2019-06-07T02:20:09.584Z,17.20
2019-06-07T02:22:39.995Z,17.20
2019-06-07T02:25:36.944Z,17.20
2019-06-07T02:27:41.353Z,17.20
2019-06-07T02:32:42.859Z,17.30
2019-06-07T02:35:13.358Z,17.40
2019-06-07T02:37:43.846Z,17.40
2019-06-07T02:40:14.455Z,17.40
2019-06-07T02:42:44.923Z,17.40
2019-06-07T02:45:15.445Z,17.50
2019-06-07T02:47:45.990Z,17.50
2019-06-07T02:50:16.744Z,17.50
2019-06-07T02:52:48.774Z,17.60
2019-06-07T02:55:17.870Z,17.60
2019-06-07T02:57:48.278Z,17.60
2019-06-07T03:00:41.412Z,17.70
2019-06-07T03:02:56.938Z,17.60
2019-06-07T03:05:29.845Z,17.70
2019-06-07T03:07:57.975Z,17.60
2019-06-07T03:10:29.846Z,17.20
2019-06-07T03:12:59.105Z,17.00
2019-06-07T03:15:35.356Z,17.10
2019-06-07T03:18:05.456Z,17.20
2019-06-07T03:20:36.811Z,17.40
2019-06-07T03:23:06.650Z,17.30
2019-06-07T03:25:39.237Z,17.30
2019-06-07T03:28:08.505Z,17.10
2019-06-07T03:30:57.908Z,16.90
2019-06-07T03:35:40.947Z,16.80
2019-06-07T03:38:11.383Z,16.80
2019-06-07T03:40:41.792Z,16.70
2019-06-07T03:43:12.209Z,16.60
2019-06-07T03:45:42.658Z,16.60
2019-06-07T03:48:12.955Z,16.50
2019-06-07T03:50:43.362Z,16.40
2019-06-07T03:53:13.682Z,16.40
2019-06-07T03:55:44.190Z,16.50
2019-06-07T03:58:31.827Z,16.60
2019-06-07T04:00:44.893Z,16.70
2019-06-07T04:03:32.883Z,16.80
2019-06-07T04:05:45.746Z,16.90
2019-06-07T04:08:16.220Z,16.80
2019-06-07T04:10:59.078Z,16.80
2019-06-07T04:13:17.074Z,16.60
2019-06-07T04:15:47.594Z,16.50
2019-06-07T04:18:18.050Z,16.60
2019-06-07T04:20:48.317Z,16.50
2019-06-07T04:23:27.952Z,16.50
2019-06-07T04:25:49.094Z,16.40
2019-06-07T04:28:19.762Z,16.30
2019-06-07T04:30:50.398Z,16.30
2019-06-07T04:33:20.733Z,16.30
2019-06-07T04:35:51.435Z,16.30
2019-06-07T04:38:21.997Z,16.30
2019-06-07T04:40:52.716Z,16.30
2019-06-07T04:43:23.853Z,16.30
2019-06-07T04:45:54.567Z,16.40
2019-06-07T04:50:54.954Z,16.30
2019-06-07T04:53:25.455Z,16.20
2019-06-07T04:55:56.237Z,16.20
2019-06-07T04:58:26.745Z,16.20
2019-06-07T05:01:02.989Z,16.20
2019-06-07T05:03:27.743Z,16.20
2019-06-07T05:05:58.126Z,16.10
2019-06-07T05:08:31.490Z,16.10
2019-06-07T05:10:59.130Z,16.20
2019-06-07T05:13:31.506Z,16.10
2019-06-07T05:16:00.118Z,16.10
2019-06-07T05:18:32.807Z,16.00
2019-06-07T05:21:00.821Z,16.10
2019-06-07T05:26:02.257Z,16.10
2019-06-07T05:28:32.662Z,16.10
2019-06-07T05:31:05.758Z,16.10
2019-06-07T05:33:36.616Z,16.10
2019-06-07T05:36:04.802Z,16.00
2019-06-07T05:38:36.078Z,16.10
2019-06-07T05:43:39.269Z,16.00
2019-06-07T05:46:06.205Z,16.00
2019-06-07T05:48:40.308Z,16.00
2019-06-07T05:51:07.399Z,16.00
2019-06-07T05:53:40.000Z,16.00
2019-06-07T05:56:08.185Z,15.90
2019-06-07T05:58:41.906Z,15.80
2019-06-07T06:06:08.601Z,15.90
2019-06-07T06:08:41.384Z,16.00
2019-06-07T06:11:09.470Z,16.10
2019-06-07T06:14:01.442Z,16.10
2019-06-07T06:16:10.335Z,16.30
2019-06-07T06:18:42.987Z,16.30
2019-06-07T06:21:19.477Z,16.20
2019-06-07T06:23:43.381Z,16.00
2019-06-07T06:26:12.101Z,15.80
2019-06-07T06:28:42.737Z,15.50
2019-06-07T06:31:13.071Z,15.40
2019-06-07T06:33:44.701Z,15.50
2019-06-07T06:36:13.712Z,15.40
2019-06-07T06:38:46.363Z,15.40
2019-06-07T06:41:16.447Z,15.40
2019-06-07T06:43:49.374Z,15.30
2019-06-07T06:46:31.895Z,15.30
2019-06-07T06:48:51.411Z,15.40
2019-06-07T06:51:16.813Z,15.30
2019-06-07T06:53:49.867Z,15.40
2019-06-07T06:56:17.829Z,15.50
2019-06-07T06:59:27.373Z,15.60
2019-06-07T07:01:18.641Z,15.60
2019-06-07T07:04:07.265Z,15.70
2019-06-07T07:06:26.250Z,15.80
2019-06-07T07:08:52.781Z,15.90
2019-06-07T07:11:23.123Z,16.00
2019-06-07T07:13:55.859Z,16.10
2019-06-07T07:16:22.093Z,16.40
2019-06-07T07:18:54.582Z,16.50
2019-06-07T07:21:22.994Z,16.70
2019-06-07T07:24:19.662Z,16.80
2019-06-07T07:26:23.937Z,16.90
2019-06-07T07:28:57.301Z,17.00
2019-06-07T07:31:25.091Z,17.10
2019-06-07T07:36:38.640Z,17.10
2019-06-07T07:41:27.822Z,17.10
2019-06-07T07:44:05.985Z,17.20
2019-06-07T07:46:30.245Z,17.30
2019-06-07T07:48:59.899Z,17.40
2019-06-07T07:51:30.334Z,17.20
2019-06-07T07:54:10.200Z,17.20
2019-06-07T07:56:31.091Z,17.20
2019-06-07T07:59:02.629Z,17.20
2019-06-07T08:01:31.846Z,17.10
2019-06-07T08:04:02.136Z,17.30
2019-06-07T08:06:32.701Z,17.40
2019-06-07T08:09:03.356Z,17.40
2019-06-07T08:11:33.864Z,17.50
2019-06-07T08:14:04.341Z,17.60
2019-06-07T08:16:34.761Z,17.70
2019-06-07T08:19:05.207Z,17.70
2019-06-07T08:21:35.737Z,17.60
2019-06-07T08:26:36.154Z,17.70
2019-06-07T08:29:06.689Z,17.40
2019-06-07T08:31:37.169Z,17.20
2019-06-07T08:34:07.503Z,17.20
2019-06-07T08:36:42.297Z,17.10
2019-06-07T08:39:09.506Z,17.30
2019-06-07T08:41:53.818Z,17.70
2019-06-07T08:44:23.398Z,18.20
2019-06-07T08:46:40.833Z,18.20
2019-06-07T08:49:11.431Z,18.10
2019-06-07T08:51:41.817Z,17.90
2019-06-07T08:54:22.516Z,18.20
2019-06-07T08:56:43.530Z,18.40
2019-06-07T08:59:13.240Z,18.40
2019-06-07T09:01:43.706Z,18.50
2019-06-07T09:04:14.070Z,18.70
2019-06-07T09:09:15.157Z,19.80
2019-06-07T09:11:45.618Z,19.60
2019-06-07T09:14:16.062Z,18.70
2019-06-07T09:16:46.406Z,18.40
2019-06-07T09:19:17.041Z,19.00
2019-06-07T09:21:47.522Z,19.60
2019-06-07T09:26:47.747Z,20.50
2019-06-07T09:29:18.787Z,21.00
2019-06-07T09:34:19.374Z,20.80
2019-06-07T09:36:49.907Z,21.00
2019-06-07T09:39:20.286Z,21.40
2019-06-07T09:44:25.444Z,21.30
2019-06-07T09:47:12.782Z,21.40
2019-06-07T09:49:32.277Z,21.30
2019-06-07T09:51:51.790Z,21.70
2019-06-07T09:55:03.832Z,21.50
2019-06-07T09:56:52.494Z,21.60
2019-06-07T09:59:22.749Z,21.70
2019-06-07T10:01:53.170Z,21.70
2019-06-07T10:04:31.238Z,21.90
2019-06-07T10:06:54.061Z,21.90
2019-06-07T10:11:54.982Z,22.30
2019-06-07T10:14:25.378Z,22.10
2019-06-07T10:16:55.718Z,22.10
2019-06-07T10:19:26.133Z,21.80
2019-06-07T10:21:56.498Z,21.50
2019-06-07T10:24:26.922Z,21.20
2019-06-07T10:26:57.148Z,21.10
2019-06-07T10:29:27.710Z,21.10
2019-06-07T10:32:00.021Z,21.30
2019-06-07T10:34:29.154Z,21.50
2019-06-07T10:37:03.008Z,21.90
2019-06-07T10:39:30.085Z,22.00
2019-06-07T10:42:00.925Z,22.30
2019-06-07T10:44:30.925Z,22.70
2019-06-07T10:47:01.760Z,22.10
2019-06-07T10:49:32.355Z,22.70
2019-06-07T10:52:04.758Z,22.90
2019-06-07T10:54:33.273Z,23.20
2019-06-07T10:57:04.816Z,23.50
2019-06-07T10:59:34.205Z,23.70
2019-06-07T11:02:05.736Z,23.90
2019-06-07T11:04:35.404Z,23.80
2019-06-07T11:07:06.424Z,23.70
2019-06-07T11:09:36.515Z,23.90
2019-06-07T11:12:08.306Z,24.40
2019-06-07T11:14:37.255Z,24.60
2019-06-07T11:17:09.241Z,24.20
2019-06-07T11:19:38.087Z,22.30
2019-06-07T11:22:08.388Z,22.10
2019-06-07T11:24:38.682Z,22.50
2019-06-07T11:27:09.670Z,22.40
2019-06-07T11:29:40.297Z,22.40
2019-06-07T11:32:10.618Z,22.90
2019-06-07T11:34:40.934Z,22.80
2019-06-07T11:37:12.069Z,23.00
2019-06-07T11:39:42.057Z,23.10
2019-06-07T11:42:13.952Z,23.20
2019-06-07T11:44:56.298Z,22.80
2019-06-07T11:47:14.527Z,23.00
2019-06-07T11:49:44.027Z,23.20
2019-06-07T11:52:15.643Z,23.60
2019-06-07T11:54:47.947Z,23.60
2019-06-07T11:57:15.536Z,23.40
2019-06-07T11:59:45.850Z,23.30
2019-06-07T12:02:17.600Z,23.20
2019-06-07T12:04:47.178Z,23.40
2019-06-07T12:07:19.971Z,23.60
2019-06-07T12:09:56.482Z,24.00
2019-06-07T12:12:20.515Z,24.30
2019-06-07T12:14:49.588Z,24.40
2019-06-07T12:17:20.067Z,23.00
2019-06-07T12:19:50.342Z,22.20
2019-06-07T12:22:20.714Z,22.20
2019-06-07T12:24:51.068Z,21.90
2019-06-07T12:27:21.533Z,22.10
2019-06-07T12:29:52.332Z,22.70
2019-06-07T12:32:23.186Z,22.90
2019-06-07T12:34:53.487Z,22.70
2019-06-07T12:37:39.080Z,22.80
2019-06-07T12:42:24.140Z,22.60
2019-06-07T12:44:54.508Z,22.20
2019-06-07T12:47:24.985Z,22.60
2019-06-07T12:49:55.610Z,22.20
2019-06-07T12:52:26.156Z,22.20
2019-06-07T12:54:56.860Z,22.70
2019-06-07T12:57:27.349Z,22.90
2019-06-07T12:59:57.880Z,23.40
2019-06-07T13:02:28.320Z,23.80
2019-06-07T13:04:58.501Z,23.40
2019-06-07T13:07:29.013Z,24.30
2019-06-07T13:09:59.541Z,25.00
2019-06-07T13:12:29.990Z,24.10
2019-06-07T13:15:00.346Z,24.40
2019-06-07T13:17:30.661Z,25.20
2019-06-07T13:20:01.065Z,24.60
2019-06-07T13:22:31.544Z,24.00
2019-06-07T13:25:01.852Z,23.70
2019-06-07T13:27:33.756Z,22.80
2019-06-07T13:30:09.972Z,23.40
2019-06-07T13:32:33.564Z,23.60
2019-06-07T13:35:04.427Z,23.40
2019-06-07T13:37:34.785Z,23.80
2019-06-07T13:40:05.423Z,23.80
2019-06-07T13:42:35.878Z,24.40
2019-06-07T13:45:06.697Z,24.80
2019-06-07T13:47:37.132Z,24.40
2019-06-07T13:50:07.566Z,25.60
2019-06-07T13:52:39.862Z,27.00
2019-06-07T13:55:08.797Z,28.10
2019-06-07T13:57:39.125Z,27.10
2019-06-07T14:00:11.210Z,26.30
2019-06-07T14:02:40.771Z,26.50
2019-06-07T14:05:11.133Z,28.20
2019-06-07T14:07:41.482Z,30.00
2019-06-07T14:10:11.951Z,32.00
2019-06-07T14:12:42.290Z,32.60
2019-06-07T14:15:12.963Z,33.10
2019-06-07T14:17:43.250Z,34.10
2019-06-07T14:20:14.015Z,34.20
2019-06-07T14:22:44.578Z,33.40
2019-06-07T14:25:15.082Z,31.80
2019-06-07T14:27:45.430Z,31.20
2019-06-07T14:30:16.267Z,30.50
2019-06-07T14:32:46.653Z,29.30
2019-06-07T14:37:46.829Z,27.00
2019-06-07T14:40:17.307Z,26.50
2019-06-07T14:42:47.803Z,26.30
2019-06-07T14:45:18.460Z,26.20
2019-06-07T14:47:48.883Z,25.70
2019-06-07T14:50:19.498Z,25.30
2019-06-07T14:52:50.003Z,26.20
2019-06-07T14:55:20.441Z,27.40
2019-06-07T14:57:50.950Z,27.30
2019-06-07T15:00:21.894Z,27.10
2019-06-07T15:02:52.313Z,27.90
2019-06-07T15:05:23.507Z,28.90
2019-06-07T15:07:53.884Z,28.90
2019-06-07T15:10:24.166Z,29.50
2019-06-07T15:12:54.670Z,29.90
2019-06-07T15:15:26.383Z,30.30
2019-06-07T15:17:55.533Z,31.00
2019-06-07T15:20:25.833Z,30.30
2019-06-07T15:22:56.326Z,30.30
2019-06-07T15:25:27.076Z,30.00
2019-06-07T15:27:57.245Z,29.60
2019-06-07T15:30:29.593Z,29.70
2019-06-07T15:35:30.235Z,29.60
2019-06-07T15:37:59.910Z,29.50
2019-06-07T15:40:31.030Z,28.70
2019-06-07T15:43:00.729Z,28.70
2019-06-07T15:48:00.915Z,27.30
2019-06-07T15:50:32.194Z,27.00
2019-06-07T15:53:01.678Z,26.80
2019-06-07T15:55:36.786Z,26.30
2019-06-07T15:58:02.533Z,26.30
2019-06-07T16:00:33.315Z,27.20
2019-06-07T16:03:03.417Z,27.80
2019-06-07T16:05:34.291Z,28.80
2019-06-07T16:08:04.529Z,29.60
2019-06-07T16:10:35.086Z,30.10
2019-06-07T16:13:05.758Z,30.30
2019-06-07T16:15:37.087Z,30.50
2019-06-07T16:18:06.794Z,31.20
2019-06-07T16:20:37.382Z,31.50
2019-06-07T16:23:07.773Z,32.20
2019-06-07T16:25:38.194Z,32.30
2019-06-07T16:28:08.667Z,32.10
2019-06-07T16:30:40.503Z,31.40
2019-06-07T16:33:09.937Z,30.30
2019-06-07T16:35:41.090Z,29.90
2019-06-07T16:38:11.007Z,29.40
2019-06-07T16:40:42.434Z,29.40
2019-06-07T16:43:18.006Z,29.10
2019-06-07T16:45:42.866Z,30.20
2019-06-07T16:48:13.252Z,31.30
2019-06-07T16:50:45.051Z,32.20
2019-06-07T16:53:13.953Z,32.60
2019-06-07T16:55:44.828Z,32.30
2019-06-07T16:58:14.706Z,31.40
2019-06-07T17:00:46.414Z,32.40
2019-06-07T17:03:15.653Z,32.90
2019-06-07T17:05:48.945Z,32.70
2019-06-07T17:08:16.514Z,32.40
2019-06-07T17:10:46.791Z,31.90
2019-06-07T17:13:30.167Z,31.70
2019-06-07T17:15:48.876Z,31.80
2019-06-07T17:18:18.110Z,31.80
2019-06-07T17:20:49.447Z,31.50
2019-06-07T17:23:18.807Z,32.30
2019-06-07T17:25:49.800Z,32.80
2019-06-07T17:28:19.664Z,32.60
2019-06-07T17:30:50.500Z,32.50
2019-06-07T17:33:20.977Z,32.60
2019-06-07T17:35:51.352Z,31.90
2019-06-07T17:38:21.831Z,32.10
2019-06-07T17:40:52.114Z,32.30
2019-06-07T17:43:22.626Z,32.00
2019-06-07T17:45:53.006Z,30.80
2019-06-07T17:48:24.177Z,30.10
2019-06-07T17:50:53.756Z,29.70
2019-06-07T17:53:24.063Z,29.60
2019-06-07T17:55:54.426Z,29.10
2019-06-07T17:58:24.832Z,28.80
2019-06-07T18:00:55.316Z,28.20
2019-06-07T18:03:25.890Z,27.50
2019-06-07T18:05:56.402Z,27.20
2019-06-07T18:08:26.979Z,27.20
2019-06-07T18:10:57.281Z,26.80
2019-06-07T18:13:27.815Z,26.10
2019-06-07T18:15:59.858Z,25.30
2019-06-07T18:18:28.795Z,24.60
2019-06-07T18:20:59.161Z,24.00
2019-06-07T18:23:29.587Z,23.40
2019-06-07T18:25:59.861Z,23.10
2019-06-07T18:28:30.369Z,22.90
2019-06-07T18:31:00.995Z,22.70
2019-06-07T18:33:31.601Z,22.50
2019-06-07T18:36:02.100Z,22.30
2019-06-07T18:38:32.582Z,22.10
2019-06-07T18:41:03.031Z,21.90
2019-06-07T18:43:33.498Z,21.60
2019-06-07T18:46:03.929Z,21.50
2019-06-07T18:51:03.954Z,21.30
2019-06-07T18:53:34.305Z,21.20
2019-06-07T18:56:04.702Z,21.00
2019-06-07T18:58:35.530Z,20.90
2019-06-07T19:01:06.032Z,20.80
2019-06-07T19:03:36.509Z,20.60
2019-06-07T19:06:06.996Z,20.50
2019-06-07T19:08:37.503Z,20.30
2019-06-07T19:11:07.985Z,20.20
2019-06-07T19:13:38.585Z,20.10
2019-06-07T19:16:09.227Z,19.90
2019-06-07T19:18:39.739Z,19.80
2019-06-07T19:21:10.090Z,19.60
2019-06-07T19:23:40.501Z,19.40
2019-06-07T19:26:11.105Z,19.30
2019-06-07T19:28:41.626Z,19.10
2019-06-07T19:31:12.160Z,19.00
2019-06-07T19:33:48.976Z,18.90
2019-06-07T19:36:13.161Z,18.80
2019-06-07T19:38:43.668Z,18.80
2019-06-07T19:41:19.720Z,18.70
2019-06-07T19:46:14.354Z,18.50
2019-06-07T19:48:44.714Z,18.40
2019-06-07T19:51:15.260Z,18.30
2019-06-07T19:53:45.818Z,18.30
2019-06-07T19:56:16.323Z,18.20
2019-06-07T19:58:46.745Z,18.20
2019-06-07T20:01:17.013Z,18.10
2019-06-07T20:04:09.618Z,18.10
2019-06-07T20:06:41.150Z,18.10
2019-06-07T20:09:37.413Z,18.10
2019-06-07T20:12:07.903Z,18.00
2019-06-07T20:14:38.282Z,17.90
2019-06-07T20:17:08.638Z,17.80
2019-06-07T20:19:39.218Z,17.70
2019-06-07T20:22:09.814Z,17.70
2019-06-07T20:24:40.270Z,17.60
2019-06-07T20:27:10.654Z,17.50
2019-06-07T20:29:41.429Z,17.50
2019-06-07T20:32:11.934Z,17.40
2019-06-07T20:34:44.727Z,17.40
2019-06-07T20:50:11.972Z,17.30
2019-06-07T20:52:42.955Z,17.20
2019-06-07T20:55:13.313Z,17.10
2019-06-07T20:57:43.866Z,17.00
2019-06-07T21:00:21.460Z,17.00
2019-06-07T21:02:45.116Z,17.00
2019-06-07T21:05:15.838Z,17.10
2019-06-07T21:10:16.154Z,17.00
2019-06-07T21:12:46.610Z,17.00
2019-06-07T21:15:17.103Z,17.10
2019-06-07T21:17:47.358Z,17.20
2019-06-07T21:20:17.885Z,17.20
2019-06-07T21:25:17.819Z,17.20
2019-06-07T21:27:48.352Z,17.20
2019-06-07T21:30:18.981Z,17.30
2019-06-07T21:32:49.503Z,17.30
2019-06-07T21:35:20.270Z,17.30
2019-06-07T21:37:50.727Z,17.40
2019-06-07T21:40:21.121Z,17.40
2019-06-07T21:42:51.498Z,17.40
2019-06-07T21:45:21.983Z,17.30
2019-06-07T21:47:52.362Z,17.30
2019-06-07T21:52:52.614Z,17.20
2019-06-07T21:57:52.722Z,17.20
2019-06-07T22:00:26.081Z,17.20
2019-06-07T22:02:56.557Z,17.30
2019-06-07T22:05:28.650Z,17.30
2019-06-07T22:07:58.937Z,17.30
2019-06-07T22:10:29.370Z,17.30
2019-06-07T22:12:59.836Z,17.30
2019-06-07T22:15:35.357Z,17.30
2019-06-07T22:18:01.054Z,17.30
2019-06-07T22:20:31.526Z,17.30
2019-06-07T22:23:02.042Z,17.20
2019-06-07T22:25:32.499Z,17.10
2019-06-07T22:28:02.967Z,17.00
2019-06-07T22:30:33.384Z,17.00
2019-06-07T22:33:03.837Z,16.90
2019-06-07T22:35:34.373Z,16.90
2019-06-07T22:38:05.963Z,16.90
2019-06-07T22:40:35.468Z,16.80
2019-06-07T22:43:05.939Z,16.80
2019-06-07T22:45:36.565Z,16.80
2019-06-07T22:48:06.999Z,16.90
2019-06-07T22:50:37.423Z,16.90
2019-06-07T22:53:07.976Z,17.00
2019-06-07T22:55:38.344Z,17.00
2019-06-07T22:58:10.016Z,17.10
2019-06-07T23:00:39.556Z,17.00
2019-06-07T23:03:10.664Z,17.00
2019-06-07T23:05:49.967Z,16.90
2019-06-07T23:08:20.605Z,16.90
2019-06-07T23:10:54.610Z,16.80
2019-06-07T23:13:25.135Z,16.80
2019-06-07T23:15:55.647Z,16.80
2019-06-07T23:18:26.014Z,16.80
2019-06-07T23:20:56.432Z,16.80
2019-06-07T23:23:26.952Z,16.80
2019-06-07T23:25:57.417Z,16.70
2019-06-07T23:28:27.967Z,16.70
2019-06-07T23:30:58.398Z,16.60
2019-06-07T23:33:28.844Z,16.50
2019-06-07T23:35:59.483Z,16.60
2019-06-07T23:38:29.802Z,16.60
2019-06-07T23:41:00.240Z,16.60
2019-06-07T23:43:30.687Z,16.70
2019-06-07T23:46:01.317Z,16.80
2019-06-07T23:48:31.825Z,16.80
2019-06-07T23:51:02.191Z,16.80
2019-06-07T23:53:32.726Z,16.90
2019-06-07T23:56:03.204Z,16.80
2019-06-07T23:58:33.812Z,16.80
